Tilghman, Maryland
Current Conditions -  °F | °C
As of 5:28 AM on Sunday 23 Nov 2014 (Local Time) from KESN Reporting Station
Clear Clear  
Wind Chill: 37°   Ceiling: Unl
Heat Index: 42°   Visibility: 10mi
Dew Point: 24°   Wind: 7mph
Humidity: 50%   Direction: 230°SW
Pressure: 30.26"   Gusts: NA
Location:  38.72°N, 76.33°W
Report Text: KESN 231028Z AUTO 23006KT 10SM CLR 05/M04 A3026 RMK AO2 T00531043
Loading
Personal Weather Stations






























Interactive Weather Map New forecast layout! Learn more

10-Day Weather Forecast

Advertisements
Track Severe Weather on mobile